createdAt,value
2022-08-24T00:03:34.810Z,19.18468
2022-08-24T00:08:35.897Z,19.12103
2022-08-24T00:13:39.248Z,19.06611
2022-08-24T00:23:46.124Z,19.3992
2022-08-24T00:28:47.078Z,19.16917
2022-08-24T00:33:48.090Z,19.03445
2022-08-24T00:38:48.999Z,19.05028
2022-08-24T00:43:49.911Z,18.86904
2022-08-24T00:48:50.808Z,18.83705
2022-08-24T00:53:51.748Z,18.8377
2022-08-24T00:58:56.979Z,18.81444
2022-08-24T01:03:58.269Z,18.72172
2022-08-24T01:08:59.209Z,18.66066
2022-08-24T01:14:00.199Z,18.84933
2022-08-24T01:19:01.145Z,18.97953
2022-08-24T01:24:02.100Z,18.79635
2022-08-24T01:29:03.102Z,18.56729
2022-08-24T01:34:05.767Z,18.48781
2022-08-24T01:39:06.695Z,18.44808
2022-08-24T01:44:07.584Z,18.38669
2022-08-24T01:49:08.494Z,18.32499
2022-08-24T01:54:09.377Z,18.31497
2022-08-24T01:59:10.243Z,18.26037
2022-08-24T02:04:11.213Z,18.1725
2022-08-24T02:09:18.552Z,18.07429
2022-08-24T02:14:19.466Z,18.11273
2022-08-24T02:24:20.859Z,18.50235
2022-08-24T02:29:21.771Z,18.461
2022-08-24T02:34:22.694Z,18.63836
2022-08-24T02:39:23.577Z,18.84933
2022-08-24T02:44:24.501Z,18.69393
2022-08-24T02:49:25.468Z,18.55437
2022-08-24T02:54:26.349Z,18.51237
2022-08-24T02:59:27.251Z,18.47263
2022-08-24T03:04:28.218Z,18.47586
2022-08-24T03:09:29.318Z,18.47748
2022-08-24T03:14:30.345Z,18.46552
2022-08-24T03:19:31.281Z,18.4106
2022-08-24T03:24:32.141Z,18.3812
2022-08-24T03:29:33.843Z,18.34146
2022-08-24T03:34:34.981Z,18.31045
2022-08-24T03:39:35.870Z,18.29688
2022-08-24T03:44:36.742Z,18.24842
2022-08-24T03:49:37.801Z,18.20933
2022-08-24T03:54:38.768Z,18.34502
2022-08-24T03:59:46.418Z,18.28331
2022-08-24T04:04:47.936Z,18.47457
2022-08-24T04:09:48.836Z,18.48846
2022-08-24T04:14:49.735Z,18.63772
2022-08-24T04:19:50.640Z,18.53951
2022-08-24T04:24:51.923Z,18.38088
2022-08-24T04:29:52.929Z,18.40317
2022-08-24T04:34:53.885Z,18.3069
2022-08-24T04:39:54.941Z,18.21288
2022-08-24T04:44:55.985Z,18.21708
2022-08-24T04:49:57.057Z,18.25908
2022-08-24T04:54:58.041Z,18.27297
2022-08-24T04:59:58.962Z,18.37926
2022-08-24T05:04:59.889Z,18.33823
2022-08-24T05:10:00.964Z,18.3098
2022-08-24T05:15:01.905Z,18.62867
2022-08-24T05:20:03.001Z,18.86742
2022-08-24T05:25:03.915Z,18.90328
2022-08-24T05:30:04.847Z,18.85999
2022-08-24T05:35:05.784Z,18.78827
2022-08-24T05:40:06.802Z,18.68069
2022-08-24T05:45:07.847Z,18.53466
2022-08-24T05:50:08.773Z,18.59313
2022-08-24T06:00:10.148Z,18.96983
2022-08-24T06:05:11.189Z,19.00053
2022-08-24T06:10:35.390Z,19.15269
2022-08-24T06:15:37.563Z,19.30551
2022-08-24T06:20:38.467Z,19.45153
2022-08-24T06:25:39.368Z,19.59466
2022-08-24T06:30:40.313Z,19.82307
2022-08-24T06:35:46.206Z,19.8515
2022-08-24T06:40:48.191Z,19.81241
2022-08-24T06:45:49.143Z,19.78301
2022-08-24T06:50:50.069Z,19.85215
2022-08-24T06:55:50.934Z,19.96684
2022-08-24T07:00:51.839Z,20.19945
2022-08-24T07:05:53.061Z,20.33805
2022-08-24T07:10:53.966Z,20.37068
2022-08-24T07:15:54.946Z,20.45242
2022-08-24T07:20:55.907Z,20.52123
2022-08-24T07:25:57.128Z,20.64271
2022-08-24T07:30:58.060Z,20.70926
2022-08-24T07:35:59.055Z,20.87113
2022-08-24T07:41:33.182Z,21.09954
2022-08-24T07:46:39.088Z,21.44588
2022-08-24T07:51:44.981Z,21.47141
2022-08-24T07:56:48.323Z,21.56348
2022-08-24T08:01:49.298Z,21.65362
2022-08-24T08:06:50.402Z,21.80482
2022-08-24T08:11:51.361Z,22.01741
2022-08-24T08:16:52.287Z,22.06878
2022-08-24T08:21:53.214Z,22.32725
2022-08-24T08:26:54.153Z,22.34049
2022-08-24T08:31:55.078Z,22.58765
2022-08-24T08:36:55.976Z,22.83449
2022-08-24T08:41:56.906Z,23.0474
2022-08-24T08:46:57.877Z,23.21508
2022-08-24T08:51:58.808Z,23.52331
2022-08-24T08:56:59.760Z,23.77144
2022-08-24T09:02:00.757Z,23.74204
2022-08-24T09:07:01.904Z,23.60376
2022-08-24T09:12:02.785Z,23.51781
2022-08-24T09:17:03.751Z,23.42186
2022-08-24T09:22:04.703Z,23.66547
2022-08-24T09:27:05.684Z,23.8115
2022-08-24T09:32:06.653Z,23.93621
2022-08-24T09:37:07.736Z,23.81926
2022-08-24T09:42:08.897Z,23.85156
2022-08-24T09:47:09.819Z,24.19404
2022-08-24T09:52:10.757Z,24.17982
2022-08-24T09:57:12.894Z,24.40049
2022-08-24T10:02:14.321Z,24.72035
2022-08-24T10:07:15.391Z,24.97107
2022-08-24T10:12:16.290Z,24.87511
2022-08-24T10:17:17.290Z,25.24667
2022-08-24T10:22:18.223Z,25.34069
2022-08-24T10:27:19.387Z,25.4793
2022-08-24T10:32:20.318Z,26.11192
2022-08-24T10:37:21.331Z,26.9985
2022-08-24T10:42:25.336Z,26.4405
2022-08-24T10:47:26.559Z,27.42143
2022-08-24T10:52:27.516Z,27.38072
2022-08-24T10:57:28.454Z,27.30059
2022-08-24T11:02:29.478Z,27.12773
2022-08-24T11:07:30.736Z,26.8699
2022-08-24T11:12:31.698Z,26.83113
2022-08-24T11:17:32.615Z,26.80916
2022-08-24T11:22:33.603Z,26.80399
2022-08-24T11:27:34.526Z,26.74389
2022-08-24T11:32:35.431Z,26.83695
2022-08-24T11:37:37.632Z,27.19494
2022-08-24T11:42:38.516Z,27.01207
2022-08-24T11:47:39.459Z,26.69349
2022-08-24T11:52:40.421Z,26.52483
2022-08-24T11:57:48.184Z,26.4418
2022-08-24T12:02:49.673Z,26.94357
2022-08-24T12:07:51.681Z,27.42273
2022-08-24T12:12:53.150Z,27.74292
2022-08-24T12:17:54.082Z,27.49187
2022-08-24T12:22:54.984Z,27.38137
2022-08-24T12:27:55.877Z,27.5846
2022-08-24T12:32:56.871Z,28.02466
2022-08-24T12:37:57.980Z,28.38622
2022-08-24T12:42:58.941Z,28.84309
2022-08-24T12:47:59.950Z,29.37104
2022-08-24T12:53:00.968Z,29.77622
2022-08-24T12:58:03.169Z,30.42987
2022-08-24T13:03:04.121Z,30.91486
2022-08-24T13:08:05.242Z,30.56784
2022-08-24T13:13:06.237Z,30.34392
2022-08-24T13:18:07.569Z,30.13067
2022-08-24T13:23:08.697Z,29.49285
2022-08-24T13:28:09.625Z,29.07895
2022-08-24T13:33:10.630Z,29.74811
2022-08-24T13:38:11.612Z,30.26412
2022-08-24T13:43:12.610Z,30.66283
2022-08-24T13:48:13.483Z,31.08514
2022-08-24T13:53:14.357Z,31.35624
2022-08-24T13:58:16.100Z,31.48904
2022-08-24T14:03:17.013Z,31.86547
2022-08-24T14:08:17.923Z,32.17921
2022-08-24T14:13:22.173Z,31.56884
2022-08-24T14:18:25.561Z,31.0845
2022-08-24T14:23:26.569Z,31.17755
2022-08-24T14:28:27.486Z,31.78049
2022-08-24T14:38:31.389Z,32.82933
2022-08-24T14:43:32.276Z,32.78312
2022-08-24T14:48:33.187Z,32.78344
2022-08-24T14:53:34.170Z,32.73239
2022-08-24T14:58:35.103Z,32.74499
2022-08-24T15:03:36.066Z,32.78021
2022-08-24T15:08:37.021Z,32.60896
2022-08-24T15:13:37.940Z,32.6529
2022-08-24T15:18:38.932Z,32.59474
2022-08-24T15:23:39.831Z,32.39473
2022-08-24T15:28:56.325Z,31.74171
2022-08-24T15:39:38.497Z,30.86316
2022-08-24T15:44:39.400Z,30.42858
2022-08-24T15:49:40.273Z,29.92453
2022-08-24T15:54:41.304Z,29.71224
2022-08-24T15:59:42.196Z,29.58526
2022-08-24T16:04:43.343Z,29.60659
2022-08-24T16:09:44.311Z,29.66345
2022-08-24T16:14:47.286Z,29.66022
2022-08-24T16:19:48.591Z,29.62953
2022-08-24T16:24:49.588Z,29.57105
2022-08-24T16:29:51.117Z,29.48058
2022-08-24T16:34:54.647Z,29.31547
2022-08-24T16:39:55.601Z,29.24665
2022-08-24T16:44:56.559Z,29.1145
2022-08-24T16:55:03.092Z,28.8111
2022-08-24T17:00:04.039Z,28.57749
2022-08-24T17:05:05.092Z,28.43371
2022-08-24T17:10:07.173Z,28.11772
2022-08-24T17:15:08.126Z,27.94712
2022-08-24T17:20:09.127Z,27.71255
2022-08-24T17:25:10.041Z,27.62111
2022-08-24T17:30:10.944Z,27.46311
2022-08-24T17:35:11.855Z,27.15972
2022-08-24T17:40:12.898Z,26.98686
2022-08-24T17:45:13.881Z,26.79656
2022-08-24T17:50:14.833Z,26.53388
2022-08-24T17:55:15.781Z,26.35973
2022-08-24T18:00:16.718Z,26.31805
2022-08-24T18:05:17.683Z,26.42047
2022-08-24T18:10:18.608Z,26.20884
2022-08-24T18:15:19.511Z,26.04051
2022-08-24T18:20:20.502Z,25.85085
2022-08-24T18:25:21.374Z,25.74326
2022-08-24T18:30:22.572Z,25.6305
2022-08-24T18:35:26.368Z,25.47154
2022-08-24T18:40:28.282Z,25.27252
2022-08-24T18:45:34.212Z,25.18399
2022-08-24T18:50:38.834Z,25.28932
2022-08-24T18:55:47.486Z,25.23601
2022-08-24T19:00:48.759Z,25.06089
2022-08-24T19:05:52.259Z,24.90096
2022-08-24T19:10:53.245Z,24.81502
2022-08-24T19:15:54.258Z,24.70484
2022-08-24T19:20:55.200Z,24.61987
2022-08-24T19:25:56.118Z,24.50647
2022-08-24T19:30:57.032Z,24.3614
2022-08-24T19:35:57.998Z,24.25607
2022-08-24T19:40:58.900Z,24.12813
2022-08-24T19:45:59.818Z,24.01085
2022-08-24T19:51:00.739Z,23.90067
2022-08-24T19:56:01.787Z,23.82636
2022-08-24T20:01:02.927Z,23.78921
2022-08-24T20:06:03.887Z,23.70844
2022-08-24T20:11:04.908Z,23.5204
2022-08-24T20:16:05.876Z,23.38115
2022-08-24T20:21:11.535Z,23.30813
2022-08-24T20:26:12.453Z,23.22316
2022-08-24T20:31:13.411Z,23.144
2022-08-24T20:36:14.433Z,23.06033
2022-08-24T20:41:18.012Z,23.01865
2022-08-24T20:46:20.831Z,22.94951
2022-08-24T20:51:22.823Z,22.86518
2022-08-24T20:56:27.775Z,22.79346
2022-08-24T21:01:32.273Z,22.75986
2022-08-24T21:06:33.165Z,22.67844
2022-08-24T21:11:34.068Z,22.53499
2022-08-24T21:16:35.191Z,22.50042
2022-08-24T21:21:38.705Z,22.3854
2022-08-24T21:26:42.732Z,22.30431
2022-08-24T21:31:43.704Z,22.24228
2022-08-24T21:36:45.470Z,22.16926
2022-08-24T21:41:47.567Z,22.104
2022-08-24T21:46:48.599Z,22.08687
2022-08-24T21:51:49.542Z,22.07751
2022-08-24T21:56:50.436Z,22.05683
2022-08-24T22:01:51.502Z,21.99512
2022-08-24T22:06:52.510Z,21.91532
2022-08-24T22:11:53.483Z,21.8759
2022-08-24T22:16:54.392Z,21.84359
2022-08-24T22:21:55.330Z,21.83778
2022-08-24T22:26:56.228Z,21.77898
2022-08-24T22:31:57.147Z,21.71081
2022-08-24T22:36:58.320Z,21.68755
2022-08-24T22:41:59.262Z,21.64748
2022-08-24T22:47:00.164Z,21.58351
2022-08-24T22:52:01.120Z,21.48756
2022-08-24T22:57:02.058Z,21.44459
2022-08-24T23:02:03.050Z,21.37319
2022-08-24T23:07:04.003Z,21.2711
2022-08-24T23:12:04.935Z,21.23717
2022-08-24T23:17:06.145Z,21.20777
2022-08-24T23:22:07.042Z,21.16674
2022-08-24T23:27:07.965Z,21.14057
2022-08-24T23:32:08.866Z,21.11376
2022-08-24T23:37:09.761Z,21.03299
2022-08-24T23:42:10.729Z,20.96482
2022-08-24T23:47:11.644Z,20.96094
2022-08-24T23:52:28.223Z,20.90602
2022-08-24T23:57:30.784Z,20.83946
